sensor_id;sensor_type;location;lat;lon;timestamp;temperature;humidity
19552;DHT22;9921;47.186;9.778;2022-09-16T00:00:51;16.30;99.90
19552;DHT22;9921;47.186;9.778;2022-09-16T00:03:18;16.30;99.90
19552;DHT22;9921;47.186;9.778;2022-09-16T00:05:47;16.30;99.90
19552;DHT22;9921;47.186;9.778;2022-09-16T00:08:15;16.20;99.90
19552;DHT22;9921;47.186;9.778;2022-09-16T00:10:42;16.20;99.90
19552;DHT22;9921;47.186;9.778;2022-09-16T00:13:09;16.20;99.90
19552;DHT22;9921;47.186;9.778;2022-09-16T00:15:36;16.30;99.90
19552;DHT22;9921;47.186;9.778;2022-09-16T00:18:04;16.40;99.90
19552;DHT22;9921;47.186;9.778;2022-09-16T00:20:31;16.30;99.90
19552;DHT22;9921;47.186;9.778;2022-09-16T00:22:58;16.10;99.90
19552;DHT22;9921;47.186;9.778;2022-09-16T00:25:24;16.20;99.90
19552;DHT22;9921;47.186;9.778;2022-09-16T00:27:51;16.00;99.90
19552;DHT22;9921;47.186;9.778;2022-09-16T00:30:18;15.90;99.90
19552;DHT22;9921;47.186;9.778;2022-09-16T00:32:45;15.70;99.90
19552;DHT22;9921;47.186;9.778;2022-09-16T00:35:13;15.60;99.90
19552;DHT22;9921;47.186;9.778;2022-09-16T00:37:40;15.60;99.90
19552;DHT22;9921;47.186;9.778;2022-09-16T00:40:08;15.70;99.90
19552;DHT22;9921;47.186;9.778;2022-09-16T00:42:39;15.70;99.90
19552;DHT22;9921;47.186;9.778;2022-09-16T00:45:13;15.60;99.90
19552;DHT22;9921;47.186;9.778;2022-09-16T00:47:43;15.70;99.90
19552;DHT22;9921;47.186;9.778;2022-09-16T00:50:16;15.70;99.90
19552;DHT22;9921;47.186;9.778;2022-09-16T00:52:45;15.70;99.90
19552;DHT22;9921;47.186;9.778;2022-09-16T00:55:19;15.80;99.90
19552;DHT22;9921;47.186;9.778;2022-09-16T00:57:48;15.90;99.90
19552;DHT22;9921;47.186;9.778;2022-09-16T01:00:15;16.00;99.90
19552;DHT22;9921;47.186;9.778;2022-09-16T01:02:43;16.10;99.90
19552;DHT22;9921;47.186;9.778;2022-09-16T01:05:14;16.00;99.90
19552;DHT22;9921;47.186;9.778;2022-09-16T01:07:43;15.90;99.90
19552;DHT22;9921;47.186;9.778;2022-09-16T01:10:10;16.10;99.90
19552;DHT22;9921;47.186;9.778;2022-09-16T01:12:39;16.20;99.90
19552;DHT22;9921;47.186;9.778;2022-09-16T01:15:08;16.30;99.90
19552;DHT22;9921;47.186;9.778;2022-09-16T01:17:59;16.30;99.90
19552;DHT22;9921;47.186;9.778;2022-09-16T01:20:54;16.30;99.90
19552;DHT22;9921;47.186;9.778;2022-09-16T01:23:56;16.40;99.90
19552;DHT22;9921;47.186;9.778;2022-09-16T01:27:03;16.40;99.90
19552;DHT22;9921;47.186;9.778;2022-09-16T01:32:45;16.40;99.90
19552;DHT22;9921;47.186;9.778;2022-09-16T01:35:22;16.30;99.90
19552;DHT22;9921;47.186;9.778;2022-09-16T01:37:59;16.30;99.90
19552;DHT22;9921;47.186;9.778;2022-09-16T01:40:32;16.30;99.90
19552;DHT22;9921;47.186;9.778;2022-09-16T01:43:04;16.10;99.90
19552;DHT22;9921;47.186;9.778;2022-09-16T01:45:36;16.10;99.90
19552;DHT22;9921;47.186;9.778;2022-09-16T01:48:10;16.10;99.90
19552;DHT22;9921;47.186;9.778;2022-09-16T01:50:42;16.00;99.90
19552;DHT22;9921;47.186;9.778;2022-09-16T01:53:15;16.10;99.90
19552;DHT22;9921;47.186;9.778;2022-09-16T01:55:48;16.00;99.90
19552;DHT22;9921;47.186;9.778;2022-09-16T01:58:24;16.00;99.90
19552;DHT22;9921;47.186;9.778;2022-09-16T02:00:55;16.00;99.90
19552;DHT22;9921;47.186;9.778;2022-09-16T02:03:28;16.10;99.90
19552;DHT22;9921;47.186;9.778;2022-09-16T02:05:59;16.10;99.90
19552;DHT22;9921;47.186;9.778;2022-09-16T02:08:36;16.00;99.90
19552;DHT22;9921;47.186;9.778;2022-09-16T02:11:07;16.10;99.90
19552;DHT22;9921;47.186;9.778;2022-09-16T02:13:39;16.10;99.90
19552;DHT22;9921;47.186;9.778;2022-09-16T02:16:09;16.00;99.90
19552;DHT22;9921;47.186;9.778;2022-09-16T02:18:41;16.10;99.90
19552;DHT22;9921;47.186;9.778;2022-09-16T02:21:11;16.10;99.90
19552;DHT22;9921;47.186;9.778;2022-09-16T02:23:42;16.10;99.90
19552;DHT22;9921;47.186;9.778;2022-09-16T02:26:15;16.20;99.90
19552;DHT22;9921;47.186;9.778;2022-09-16T02:28:46;16.20;99.90
19552;DHT22;9921;47.186;9.778;2022-09-16T02:31:15;16.20;99.90
19552;DHT22;9921;47.186;9.778;2022-09-16T02:33:48;16.20;99.90
19552;DHT22;9921;47.186;9.778;2022-09-16T02:36:20;16.20;99.90
19552;DHT22;9921;47.186;9.778;2022-09-16T02:38:51;16.20;99.90
19552;DHT22;9921;47.186;9.778;2022-09-16T02:41:19;16.30;99.90
19552;DHT22;9921;47.186;9.778;2022-09-16T02:43:46;16.20;99.90
19552;DHT22;9921;47.186;9.778;2022-09-16T02:46:20;16.30;99.90
19552;DHT22;9921;47.186;9.778;2022-09-16T02:48:56;16.10;99.90
19552;DHT22;9921;47.186;9.778;2022-09-16T02:51:29;16.10;99.90
19552;DHT22;9921;47.186;9.778;2022-09-16T02:54:01;16.10;99.90
19552;DHT22;9921;47.186;9.778;2022-09-16T02:56:32;16.10;99.90
19552;DHT22;9921;47.186;9.778;2022-09-16T02:59:02;16.10;99.90
19552;DHT22;9921;47.186;9.778;2022-09-16T03:01:32;16.10;99.90
19552;DHT22;9921;47.186;9.778;2022-09-16T03:04:03;16.10;99.90
19552;DHT22;9921;47.186;9.778;2022-09-16T03:06:29;16.10;99.90
19552;DHT22;9921;47.186;9.778;2022-09-16T03:09:02;16.00;99.90
19552;DHT22;9921;47.186;9.778;2022-09-16T03:11:48;16.00;99.90
19552;DHT22;9921;47.186;9.778;2022-09-16T03:14:27;16.00;99.90
19552;DHT22;9921;47.186;9.778;2022-09-16T03:17:06;15.60;99.90
19552;DHT22;9921;47.186;9.778;2022-09-16T03:19:43;15.40;99.90
19552;DHT22;9921;47.186;9.778;2022-09-16T03:22:20;15.50;99.90
19552;DHT22;9921;47.186;9.778;2022-09-16T03:24:56;15.50;99.90
19552;DHT22;9921;47.186;9.778;2022-09-16T03:27:28;15.60;99.90
19552;DHT22;9921;47.186;9.778;2022-09-16T03:30:02;15.70;99.90
19552;DHT22;9921;47.186;9.778;2022-09-16T03:32:31;15.70;99.90
19552;DHT22;9921;47.186;9.778;2022-09-16T03:35:04;15.80;99.90
19552;DHT22;9921;47.186;9.778;2022-09-16T03:37:34;15.90;99.90
19552;DHT22;9921;47.186;9.778;2022-09-16T03:40:07;15.90;99.90
19552;DHT22;9921;47.186;9.778;2022-09-16T03:42:37;15.80;99.90
19552;DHT22;9921;47.186;9.778;2022-09-16T03:45:05;15.50;99.90
19552;DHT22;9921;47.186;9.778;2022-09-16T03:47:32;15.50;99.90
19552;DHT22;9921;47.186;9.778;2022-09-16T03:50:00;15.50;99.90
19552;DHT22;9921;47.186;9.778;2022-09-16T03:52:28;15.40;99.90
19552;DHT22;9921;47.186;9.778;2022-09-16T03:54:54;15.50;99.90
19552;DHT22;9921;47.186;9.778;2022-09-16T03:57:21;15.50;99.90
19552;DHT22;9921;47.186;9.778;2022-09-16T03:59:48;15.40;99.90
19552;DHT22;9921;47.186;9.778;2022-09-16T04:02:15;15.50;99.90
19552;DHT22;9921;47.186;9.778;2022-09-16T04:04:42;15.50;99.90
19552;DHT22;9921;47.186;9.778;2022-09-16T04:07:10;15.50;99.90
19552;DHT22;9921;47.186;9.778;2022-09-16T04:09:37;15.50;99.90
19552;DHT22;9921;47.186;9.778;2022-09-16T04:12:04;15.70;99.90
19552;DHT22;9921;47.186;9.778;2022-09-16T04:14:32;15.70;99.90
19552;DHT22;9921;47.186;9.778;2022-09-16T04:16:59;15.60;99.90
19552;DHT22;9921;47.186;9.778;2022-09-16T04:19:26;15.60;99.90
19552;DHT22;9921;47.186;9.778;2022-09-16T04:21:53;15.50;99.90
19552;DHT22;9921;47.186;9.778;2022-09-16T04:24:21;15.40;99.90
19552;DHT22;9921;47.186;9.778;2022-09-16T04:26:48;15.50;99.90
19552;DHT22;9921;47.186;9.778;2022-09-16T04:29:15;15.40;99.90
19552;DHT22;9921;47.186;9.778;2022-09-16T04:31:42;15.20;99.90
19552;DHT22;9921;47.186;9.778;2022-09-16T04:34:09;15.30;99.90
19552;DHT22;9921;47.186;9.778;2022-09-16T04:36:37;15.30;99.90
19552;DHT22;9921;47.186;9.778;2022-09-16T04:39:05;15.30;99.90
19552;DHT22;9921;47.186;9.778;2022-09-16T04:41:34;15.40;99.90
19552;DHT22;9921;47.186;9.778;2022-09-16T04:44:01;15.40;99.90
19552;DHT22;9921;47.186;9.778;2022-09-16T04:46:29;15.40;99.90
19552;DHT22;9921;47.186;9.778;2022-09-16T04:48:57;15.40;99.90
19552;DHT22;9921;47.186;9.778;2022-09-16T04:51:25;15.20;99.90
19552;DHT22;9921;47.186;9.778;2022-09-16T04:53:53;15.10;99.90
19552;DHT22;9921;47.186;9.778;2022-09-16T04:56:22;15.10;99.90
19552;DHT22;9921;47.186;9.778;2022-09-16T04:58:53;15.20;99.90
19552;DHT22;9921;47.186;9.778;2022-09-16T05:01:21;15.20;99.90
19552;DHT22;9921;47.186;9.778;2022-09-16T05:03:50;15.20;99.90
19552;DHT22;9921;47.186;9.778;2022-09-16T05:06:18;15.30;99.90
19552;DHT22;9921;47.186;9.778;2022-09-16T05:08:45;15.30;99.90
19552;DHT22;9921;47.186;9.778;2022-09-16T05:11:14;15.40;99.90
19552;DHT22;9921;47.186;9.778;2022-09-16T05:13:41;15.40;99.90
19552;DHT22;9921;47.186;9.778;2022-09-16T05:16:10;15.50;99.90
19552;DHT22;9921;47.186;9.778;2022-09-16T05:18:38;15.50;99.90
19552;DHT22;9921;47.186;9.778;2022-09-16T05:21:08;15.40;99.90
19552;DHT22;9921;47.186;9.778;2022-09-16T05:23:35;15.50;99.90
19552;DHT22;9921;47.186;9.778;2022-09-16T05:26:04;15.50;99.90
19552;DHT22;9921;47.186;9.778;2022-09-16T05:28:32;15.50;99.90
19552;DHT22;9921;47.186;9.778;2022-09-16T05:31:11;15.60;99.90
19552;DHT22;9921;47.186;9.778;2022-09-16T05:33:39;15.60;99.90
19552;DHT22;9921;47.186;9.778;2022-09-16T05:36:08;15.60;99.90
19552;DHT22;9921;47.186;9.778;2022-09-16T05:38:35;15.60;99.90
19552;DHT22;9921;47.186;9.778;2022-09-16T05:41:03;15.50;99.90
19552;DHT22;9921;47.186;9.778;2022-09-16T05:43:30;15.60;99.90
19552;DHT22;9921;47.186;9.778;2022-09-16T05:45:58;15.70;99.90
19552;DHT22;9921;47.186;9.778;2022-09-16T05:48:26;15.70;99.90
19552;DHT22;9921;47.186;9.778;2022-09-16T05:50:54;15.50;99.90
19552;DHT22;9921;47.186;9.778;2022-09-16T05:53:22;15.40;99.90
19552;DHT22;9921;47.186;9.778;2022-09-16T05:55:56;15.30;99.90
19552;DHT22;9921;47.186;9.778;2022-09-16T05:58:24;15.40;99.90
19552;DHT22;9921;47.186;9.778;2022-09-16T06:00:51;15.40;99.90
19552;DHT22;9921;47.186;9.778;2022-09-16T06:03:23;15.30;99.90
19552;DHT22;9921;47.186;9.778;2022-09-16T06:05:58;15.20;99.90
19552;DHT22;9921;47.186;9.778;2022-09-16T06:08:25;15.30;99.90
19552;DHT22;9921;47.186;9.778;2022-09-16T06:10:53;15.40;99.90
19552;DHT22;9921;47.186;9.778;2022-09-16T06:13:20;15.50;99.90
19552;DHT22;9921;47.186;9.778;2022-09-16T06:15:48;15.60;99.90
19552;DHT22;9921;47.186;9.778;2022-09-16T06:18:15;15.50;99.90
19552;DHT22;9921;47.186;9.778;2022-09-16T06:20:43;15.60;99.90
19552;DHT22;9921;47.186;9.778;2022-09-16T06:23:11;15.70;99.90
19552;DHT22;9921;47.186;9.778;2022-09-16T06:25:38;15.70;99.90
19552;DHT22;9921;47.186;9.778;2022-09-16T06:28:05;15.70;99.90
19552;DHT22;9921;47.186;9.778;2022-09-16T06:30:33;15.80;99.90
19552;DHT22;9921;47.186;9.778;2022-09-16T06:33:00;15.90;99.90
19552;DHT22;9921;47.186;9.778;2022-09-16T06:35:27;15.90;99.90
19552;DHT22;9921;47.186;9.778;2022-09-16T06:37:54;15.90;99.90
19552;DHT22;9921;47.186;9.778;2022-09-16T06:40:22;16.00;99.90
19552;DHT22;9921;47.186;9.778;2022-09-16T06:42:51;16.00;99.90
19552;DHT22;9921;47.186;9.778;2022-09-16T06:45:19;16.00;99.90
19552;DHT22;9921;47.186;9.778;2022-09-16T06:47:45;15.90;99.90
19552;DHT22;9921;47.186;9.778;2022-09-16T06:50:12;16.00;99.90
19552;DHT22;9921;47.186;9.778;2022-09-16T06:52:39;15.90;99.90
19552;DHT22;9921;47.186;9.778;2022-09-16T06:55:06;16.00;99.90
19552;DHT22;9921;47.186;9.778;2022-09-16T06:57:35;16.00;99.90
19552;DHT22;9921;47.186;9.778;2022-09-16T07:00:02;16.00;99.90
19552;DHT22;9921;47.186;9.778;2022-09-16T07:02:30;16.10;99.90
19552;DHT22;9921;47.186;9.778;2022-09-16T07:04:57;16.10;99.90
19552;DHT22;9921;47.186;9.778;2022-09-16T07:07:23;16.10;99.90
19552;DHT22;9921;47.186;9.778;2022-09-16T07:09:50;16.10;99.90
19552;DHT22;9921;47.186;9.778;2022-09-16T07:12:18;16.20;99.90
19552;DHT22;9921;47.186;9.778;2022-09-16T07:14:46;16.30;99.90
19552;DHT22;9921;47.186;9.778;2022-09-16T07:17:13;16.40;99.90
19552;DHT22;9921;47.186;9.778;2022-09-16T07:19:39;16.40;99.90
19552;DHT22;9921;47.186;9.778;2022-09-16T07:22:07;16.80;99.90
19552;DHT22;9921;47.186;9.778;2022-09-16T07:24:35;18.50;99.90
19552;DHT22;9921;47.186;9.778;2022-09-16T07:27:02;19.50;99.90
19552;DHT22;9921;47.186;9.778;2022-09-16T07:29:29;21.40;99.90
19552;DHT22;9921;47.186;9.778;2022-09-16T07:31:57;20.70;99.90
19552;DHT22;9921;47.186;9.778;2022-09-16T07:34:24;20.30;99.90
19552;DHT22;9921;47.186;9.778;2022-09-16T07:36:52;19.80;99.90
19552;DHT22;9921;47.186;9.778;2022-09-16T07:39:18;19.80;99.90
19552;DHT22;9921;47.186;9.778;2022-09-16T07:41:46;20.00;99.90
19552;DHT22;9921;47.186;9.778;2022-09-16T07:44:15;20.10;99.90
19552;DHT22;9921;47.186;9.778;2022-09-16T07:46:42;19.70;99.90
19552;DHT22;9921;47.186;9.778;2022-09-16T07:49:12;19.30;99.90
19552;DHT22;9921;47.186;9.778;2022-09-16T07:51:39;19.00;99.90
19552;DHT22;9921;47.186;9.778;2022-09-16T07:54:09;18.60;99.90
19552;DHT22;9921;47.186;9.778;2022-09-16T07:56:37;18.50;99.90
19552;DHT22;9921;47.186;9.778;2022-09-16T07:59:06;18.30;99.90
19552;DHT22;9921;47.186;9.778;2022-09-16T08:01:33;18.20;99.90
19552;DHT22;9921;47.186;9.778;2022-09-16T08:04:01;18.20;99.90
19552;DHT22;9921;47.186;9.778;2022-09-16T08:06:31;18.10;99.90
19552;DHT22;9921;47.186;9.778;2022-09-16T08:08:59;18.00;99.90
19552;DHT22;9921;47.186;9.778;2022-09-16T08:11:27;18.00;99.90
19552;DHT22;9921;47.186;9.778;2022-09-16T08:13:56;18.00;99.90
19552;DHT22;9921;47.186;9.778;2022-09-16T08:16:23;18.20;99.90
19552;DHT22;9921;47.186;9.778;2022-09-16T08:18:52;18.30;99.90
19552;DHT22;9921;47.186;9.778;2022-09-16T08:21:21;18.30;99.90
19552;DHT22;9921;47.186;9.778;2022-09-16T08:23:50;18.20;99.90
19552;DHT22;9921;47.186;9.778;2022-09-16T08:26:18;18.30;99.90
19552;DHT22;9921;47.186;9.778;2022-09-16T08:28:46;18.30;99.90
19552;DHT22;9921;47.186;9.778;2022-09-16T08:31:15;18.30;99.90
19552;DHT22;9921;47.186;9.778;2022-09-16T08:33:42;18.20;99.90
19552;DHT22;9921;47.186;9.778;2022-09-16T08:36:12;18.20;99.90
19552;DHT22;9921;47.186;9.778;2022-09-16T08:38:41;18.30;99.90
19552;DHT22;9921;47.186;9.778;2022-09-16T08:41:24;18.30;99.90
19552;DHT22;9921;47.186;9.778;2022-09-16T08:44:00;18.20;99.90
19552;DHT22;9921;47.186;9.778;2022-09-16T08:46:33;18.40;99.90
19552;DHT22;9921;47.186;9.778;2022-09-16T08:49:22;18.40;99.90
19552;DHT22;9921;47.186;9.778;2022-09-16T08:51:53;18.60;99.90
19552;DHT22;9921;47.186;9.778;2022-09-16T08:54:26;18.60;99.90
19552;DHT22;9921;47.186;9.778;2022-09-16T08:56:59;18.60;99.90
19552;DHT22;9921;47.186;9.778;2022-09-16T08:59:31;18.60;99.90
19552;DHT22;9921;47.186;9.778;2022-09-16T09:04:54;18.60;99.90
19552;DHT22;9921;47.186;9.778;2022-09-16T09:07:28;18.60;99.90
19552;DHT22;9921;47.186;9.778;2022-09-16T09:10:05;18.70;99.90
19552;DHT22;9921;47.186;9.778;2022-09-16T09:12:38;18.40;99.90
19552;DHT22;9921;47.186;9.778;2022-09-16T09:15:25;18.20;99.90
19552;DHT22;9921;47.186;9.778;2022-09-16T09:18:04;18.20;99.90
19552;DHT22;9921;47.186;9.778;2022-09-16T09:20:43;18.50;99.90
19552;DHT22;9921;47.186;9.778;2022-09-16T09:23:35;18.40;99.90
19552;DHT22;9921;47.186;9.778;2022-09-16T09:26:12;18.60;99.90
19552;DHT22;9921;47.186;9.778;2022-09-16T09:32:09;18.80;99.90
19552;DHT22;9921;47.186;9.778;2022-09-16T09:34:54;19.10;99.90
19552;DHT22;9921;47.186;9.778;2022-09-16T09:37:34;19.30;99.90
19552;DHT22;9921;47.186;9.778;2022-09-16T09:40:10;19.60;99.90
19552;DHT22;9921;47.186;9.778;2022-09-16T09:42:41;20.00;99.90
19552;DHT22;9921;47.186;9.778;2022-09-16T09:45:17;20.20;99.90
19552;DHT22;9921;47.186;9.778;2022-09-16T09:47:49;20.50;99.90
19552;DHT22;9921;47.186;9.778;2022-09-16T09:50:21;20.90;99.90
19552;DHT22;9921;47.186;9.778;2022-09-16T09:52:55;21.80;99.90
19552;DHT22;9921;47.186;9.778;2022-09-16T09:55:26;22.60;99.90
19552;DHT22;9921;47.186;9.778;2022-09-16T09:58:13;23.30;99.90
19552;DHT22;9921;47.186;9.778;2022-09-16T10:00:41;24.10;99.90
19552;DHT22;9921;47.186;9.778;2022-09-16T10:03:13;24.80;99.90
19552;DHT22;9921;47.186;9.778;2022-09-16T10:05:41;24.90;99.90
19552;DHT22;9921;47.186;9.778;2022-09-16T10:08:16;25.00;99.90
19552;DHT22;9921;47.186;9.778;2022-09-16T10:10:48;24.80;99.90
19552;DHT22;9921;47.186;9.778;2022-09-16T10:13:16;25.10;99.90
19552;DHT22;9921;47.186;9.778;2022-09-16T10:15:44;25.70;99.90
19552;DHT22;9921;47.186;9.778;2022-09-16T10:18:20;26.50;99.90
19552;DHT22;9921;47.186;9.778;2022-09-16T10:21:04;27.80;99.90
19552;DHT22;9921;47.186;9.778;2022-09-16T10:23:32;29.20;99.90
19552;DHT22;9921;47.186;9.778;2022-09-16T10:26:04;29.60;99.90
19552;DHT22;9921;47.186;9.778;2022-09-16T10:28:31;29.60;99.90
19552;DHT22;9921;47.186;9.778;2022-09-16T10:31:00;29.10;99.90
19552;DHT22;9921;47.186;9.778;2022-09-16T10:33:30;28.00;99.90
19552;DHT22;9921;47.186;9.778;2022-09-16T10:36:01;27.30;99.90
19552;DHT22;9921;47.186;9.778;2022-09-16T10:38:35;26.50;99.90
19552;DHT22;9921;47.186;9.778;2022-09-16T10:41:06;25.40;99.90
19552;DHT22;9921;47.186;9.778;2022-09-16T10:43:36;25.30;99.90
19552;DHT22;9921;47.186;9.778;2022-09-16T10:46:05;25.80;99.90
19552;DHT22;9921;47.186;9.778;2022-09-16T10:48:33;26.60;99.90
19552;DHT22;9921;47.186;9.778;2022-09-16T10:51:04;27.90;99.90
19552;DHT22;9921;47.186;9.778;2022-09-16T10:53:32;29.50;99.90
19552;DHT22;9921;47.186;9.778;2022-09-16T10:56:01;30.80;99.90
19552;DHT22;9921;47.186;9.778;2022-09-16T10:58:29;31.30;99.30
19552;DHT22;9921;47.186;9.778;2022-09-16T11:01:03;30.40;99.90
19552;DHT22;9921;47.186;9.778;2022-09-16T11:03:45;29.80;99.50
19552;DHT22;9921;47.186;9.778;2022-09-16T11:06:40;28.20;98.70
19552;DHT22;9921;47.186;9.778;2022-09-16T11:09:14;26.80;99.90
19552;DHT22;9921;47.186;9.778;2022-09-16T11:11:58;25.60;99.90
19552;DHT22;9921;47.186;9.778;2022-09-16T11:14:36;24.80;99.90
19552;DHT22;9921;47.186;9.778;2022-09-16T11:17:20;24.10;99.90
19552;DHT22;9921;47.186;9.778;2022-09-16T11:20:01;23.50;99.90
19552;DHT22;9921;47.186;9.778;2022-09-16T11:22:36;23.00;99.90
19552;DHT22;9921;47.186;9.778;2022-09-16T11:25:22;22.50;99.90
19552;DHT22;9921;47.186;9.778;2022-09-16T11:28:00;22.00;99.90
19552;DHT22;9921;47.186;9.778;2022-09-16T11:30:35;21.60;99.90
19552;DHT22;9921;47.186;9.778;2022-09-16T11:33:15;21.20;99.90
19552;DHT22;9921;47.186;9.778;2022-09-16T11:36:13;21.30;99.90
19552;DHT22;9921;47.186;9.778;2022-09-16T11:38:48;21.20;99.90
19552;DHT22;9921;47.186;9.778;2022-09-16T11:41:23;21.20;99.90
19552;DHT22;9921;47.186;9.778;2022-09-16T11:44:07;21.30;99.90
19552;DHT22;9921;47.186;9.778;2022-09-16T11:46:41;21.60;99.90
19552;DHT22;9921;47.186;9.778;2022-09-16T11:49:29;22.00;99.90
19552;DHT22;9921;47.186;9.778;2022-09-16T11:52:13;22.20;99.90
19552;DHT22;9921;47.186;9.778;2022-09-16T11:54:57;22.40;99.90
19552;DHT22;9921;47.186;9.778;2022-09-16T11:57:28;23.10;99.90
19552;DHT22;9921;47.186;9.778;2022-09-16T11:59:59;24.50;99.90
19552;DHT22;9921;47.186;9.778;2022-09-16T12:02:33;25.90;99.90
19552;DHT22;9921;47.186;9.778;2022-09-16T12:05:10;27.20;99.90
19552;DHT22;9921;47.186;9.778;2022-09-16T12:07:43;27.90;99.90
19552;DHT22;9921;47.186;9.778;2022-09-16T12:10:17;28.10;99.90
19552;DHT22;9921;47.186;9.778;2022-09-16T12:12:48;28.20;98.80
19552;DHT22;9921;47.186;9.778;2022-09-16T12:15:19;27.80;99.90
19552;DHT22;9921;47.186;9.778;2022-09-16T12:17:51;27.40;99.90
19552;DHT22;9921;47.186;9.778;2022-09-16T12:20:22;26.70;99.90
19552;DHT22;9921;47.186;9.778;2022-09-16T12:22:54;26.00;99.90
19552;DHT22;9921;47.186;9.778;2022-09-16T12:25:26;25.40;99.90
19552;DHT22;9921;47.186;9.778;2022-09-16T12:27:58;25.10;99.90
19552;DHT22;9921;47.186;9.778;2022-09-16T12:30:28;24.70;99.90
19552;DHT22;9921;47.186;9.778;2022-09-16T12:33:02;24.00;99.90
19552;DHT22;9921;47.186;9.778;2022-09-16T12:35:33;23.50;99.90
19552;DHT22;9921;47.186;9.778;2022-09-16T12:38:03;23.00;99.90
19552;DHT22;9921;47.186;9.778;2022-09-16T12:40:38;22.50;99.90
19552;DHT22;9921;47.186;9.778;2022-09-16T12:43:24;22.20;99.90
19552;DHT22;9921;47.186;9.778;2022-09-16T12:46:12;21.50;99.90
19552;DHT22;9921;47.186;9.778;2022-09-16T12:52:15;20.70;99.90
19552;DHT22;9921;47.186;9.778;2022-09-16T12:57:58;20.00;99.90
19552;DHT22;9921;47.186;9.778;2022-09-16T13:00:33;19.00;99.90
19552;DHT22;9921;47.186;9.778;2022-09-16T13:03:08;18.40;99.90
19552;DHT22;9921;47.186;9.778;2022-09-16T13:05:37;18.30;99.90
19552;DHT22;9921;47.186;9.778;2022-09-16T13:08:06;18.00;99.90
19552;DHT22;9921;47.186;9.778;2022-09-16T13:10:43;17.90;99.90
19552;DHT22;9921;47.186;9.778;2022-09-16T13:13:18;17.70;99.90
19552;DHT22;9921;47.186;9.778;2022-09-16T13:15:54;17.70;99.90
19552;DHT22;9921;47.186;9.778;2022-09-16T13:18:25;17.40;99.90
19552;DHT22;9921;47.186;9.778;2022-09-16T13:21:06;17.30;99.90
19552;DHT22;9921;47.186;9.778;2022-09-16T13:23:41;17.20;99.90
19552;DHT22;9921;47.186;9.778;2022-09-16T13:26:11;17.10;99.90
19552;DHT22;9921;47.186;9.778;2022-09-16T13:28:40;17.00;99.90
19552;DHT22;9921;47.186;9.778;2022-09-16T13:31:16;16.90;99.90
19552;DHT22;9921;47.186;9.778;2022-09-16T13:33:44;16.80;99.90
19552;DHT22;9921;47.186;9.778;2022-09-16T13:36:15;16.80;99.90
19552;DHT22;9921;47.186;9.778;2022-09-16T13:38:44;16.80;99.90
19552;DHT22;9921;47.186;9.778;2022-09-16T13:41:14;16.90;99.90
19552;DHT22;9921;47.186;9.778;2022-09-16T13:43:53;17.00;99.90
19552;DHT22;9921;47.186;9.778;2022-09-16T13:46:34;17.00;99.90
19552;DHT22;9921;47.186;9.778;2022-09-16T13:49:16;17.10;99.90
19552;DHT22;9921;47.186;9.778;2022-09-16T13:51:45;17.30;99.90
19552;DHT22;9921;47.186;9.778;2022-09-16T13:54:24;17.40;99.90
19552;DHT22;9921;47.186;9.778;2022-09-16T14:00:10;17.70;99.90
19552;DHT22;9921;47.186;9.778;2022-09-16T14:02:55;17.80;99.90
19552;DHT22;9921;47.186;9.778;2022-09-16T14:08:26;18.00;99.90
19552;DHT22;9921;47.186;9.778;2022-09-16T14:11:00;18.00;99.90
19552;DHT22;9921;47.186;9.778;2022-09-16T14:13:36;17.90;99.90
19552;DHT22;9921;47.186;9.778;2022-09-16T14:16:14;18.00;99.90
19552;DHT22;9921;47.186;9.778;2022-09-16T14:18:49;18.00;99.90
19552;DHT22;9921;47.186;9.778;2022-09-16T14:21:19;17.90;99.90
19552;DHT22;9921;47.186;9.778;2022-09-16T14:23:46;17.90;99.90
19552;DHT22;9921;47.186;9.778;2022-09-16T14:26:14;17.90;99.90
19552;DHT22;9921;47.186;9.778;2022-09-16T14:28:43;17.70;99.90
19552;DHT22;9921;47.186;9.778;2022-09-16T14:31:15;17.40;99.90
19552;DHT22;9921;47.186;9.778;2022-09-16T14:33:45;17.30;99.90
19552;DHT22;9921;47.186;9.778;2022-09-16T14:36:18;17.30;99.90
19552;DHT22;9921;47.186;9.778;2022-09-16T14:38:48;17.20;99.90
19552;DHT22;9921;47.186;9.778;2022-09-16T14:41:22;17.20;99.90
19552;DHT22;9921;47.186;9.778;2022-09-16T14:43:51;17.20;99.90
19552;DHT22;9921;47.186;9.778;2022-09-16T14:46:19;17.30;99.90
19552;DHT22;9921;47.186;9.778;2022-09-16T14:48:46;17.30;99.90
19552;DHT22;9921;47.186;9.778;2022-09-16T14:51:19;17.40;99.90
19552;DHT22;9921;47.186;9.778;2022-09-16T14:53:53;17.40;99.90
19552;DHT22;9921;47.186;9.778;2022-09-16T14:56:21;17.50;99.90
19552;DHT22;9921;47.186;9.778;2022-09-16T14:58:49;17.20;99.90
19552;DHT22;9921;47.186;9.778;2022-09-16T15:01:20;17.10;99.90
19552;DHT22;9921;47.186;9.778;2022-09-16T15:03:52;17.10;99.90
19552;DHT22;9921;47.186;9.778;2022-09-16T15:06:23;17.20;99.90
19552;DHT22;9921;47.186;9.778;2022-09-16T15:08:54;17.20;99.90
19552;DHT22;9921;47.186;9.778;2022-09-16T15:11:26;17.30;99.90
19552;DHT22;9921;47.186;9.778;2022-09-16T15:13:54;17.30;99.90
19552;DHT22;9921;47.186;9.778;2022-09-16T15:16:23;17.40;99.90
19552;DHT22;9921;47.186;9.778;2022-09-16T15:18:54;17.40;99.90
19552;DHT22;9921;47.186;9.778;2022-09-16T15:21:24;17.40;99.90
19552;DHT22;9921;47.186;9.778;2022-09-16T15:23:53;17.40;99.90
19552;DHT22;9921;47.186;9.778;2022-09-16T15:26:23;17.40;99.90
19552;DHT22;9921;47.186;9.778;2022-09-16T15:28:53;17.30;99.90
19552;DHT22;9921;47.186;9.778;2022-09-16T15:31:31;17.30;99.90
19552;DHT22;9921;47.186;9.778;2022-09-16T15:34:00;17.30;99.90
19552;DHT22;9921;47.186;9.778;2022-09-16T15:36:36;17.20;99.90
19552;DHT22;9921;47.186;9.778;2022-09-16T15:39:03;17.20;99.90
19552;DHT22;9921;47.186;9.778;2022-09-16T15:41:30;17.10;99.90
19552;DHT22;9921;47.186;9.778;2022-09-16T15:43:57;17.10;99.90
19552;DHT22;9921;47.186;9.778;2022-09-16T15:46:25;17.10;99.90
19552;DHT22;9921;47.186;9.778;2022-09-16T15:48:55;17.00;99.90
19552;DHT22;9921;47.186;9.778;2022-09-16T15:51:35;17.00;99.90
19552;DHT22;9921;47.186;9.778;2022-09-16T15:54:06;17.00;99.90
19552;DHT22;9921;47.186;9.778;2022-09-16T15:56:50;17.10;99.90
19552;DHT22;9921;47.186;9.778;2022-09-16T15:59:22;17.00;99.90
19552;DHT22;9921;47.186;9.778;2022-09-16T16:01:53;16.90;99.90
19552;DHT22;9921;47.186;9.778;2022-09-16T16:04:25;17.00;99.90
19552;DHT22;9921;47.186;9.778;2022-09-16T16:06:55;17.00;99.90
19552;DHT22;9921;47.186;9.778;2022-09-16T16:09:36;16.80;99.90
19552;DHT22;9921;47.186;9.778;2022-09-16T16:12:06;16.90;99.90
19552;DHT22;9921;47.186;9.778;2022-09-16T16:14:35;16.80;99.90
19552;DHT22;9921;47.186;9.778;2022-09-16T16:17:06;16.70;99.90
19552;DHT22;9921;47.186;9.778;2022-09-16T16:19:34;16.70;99.90
19552;DHT22;9921;47.186;9.778;2022-09-16T16:22:04;16.70;99.90
19552;DHT22;9921;47.186;9.778;2022-09-16T16:24:31;16.50;99.90
19552;DHT22;9921;47.186;9.778;2022-09-16T16:26:58;16.40;99.90
19552;DHT22;9921;47.186;9.778;2022-09-16T16:29:25;16.40;99.90
19552;DHT22;9921;47.186;9.778;2022-09-16T16:32:04;16.20;99.90
19552;DHT22;9921;47.186;9.778;2022-09-16T16:34:34;16.20;99.90